sensor_id;sensor_type;location;lat;lon;timestamp;P1;durP1;ratioP1;P2;durP2;ratioP2
5823;SDS011;2938;52.254;12.988;2023-04-25T00:01:16;8.45;;;3.83;;
5823;SDS011;2938;52.254;12.988;2023-04-25T00:03:41;7.63;;;3.83;;
5823;SDS011;2938;52.254;12.988;2023-04-25T00:06:07;9.93;;;4.38;;
5823;SDS011;2938;52.254;12.988;2023-04-25T00:08:33;8.35;;;3.83;;
5823;SDS011;2938;52.254;12.988;2023-04-25T00:10:58;6.68;;;4.22;;
5823;SDS011;2938;52.254;12.988;2023-04-25T00:13:24;6.55;;;3.67;;
5823;SDS011;2938;52.254;12.988;2023-04-25T00:15:50;6.00;;;3.55;;
5823;SDS011;2938;52.254;12.988;2023-04-25T00:18:16;9.32;;;3.78;;
5823;SDS011;2938;52.254;12.988;2023-04-25T00:20:42;4.30;;;3.40;;
5823;SDS011;2938;52.254;12.988;2023-04-25T00:23:11;6.70;;;3.67;;
5823;SDS011;2938;52.254;12.988;2023-04-25T00:25:37;3.55;;;2.90;;
5823;SDS011;2938;52.254;12.988;2023-04-25T00:28:02;3.90;;;3.17;;
5823;SDS011;2938;52.254;12.988;2023-04-25T00:30:28;8.70;;;4.55;;
5823;SDS011;2938;52.254;12.988;2023-04-25T00:32:53;8.32;;;3.33;;
5823;SDS011;2938;52.254;12.988;2023-04-25T00:35:18;5.85;;;4.38;;
5823;SDS011;2938;52.254;12.988;2023-04-25T00:37:43;13.75;;;4.22;;
5823;SDS011;2938;52.254;12.988;2023-04-25T00:40:09;10.90;;;4.53;;
5823;SDS011;2938;52.254;12.988;2023-04-25T00:42:35;9.32;;;3.65;;
5823;SDS011;2938;52.254;12.988;2023-04-25T00:45:01;8.23;;;3.67;;
5823;SDS011;2938;52.254;12.988;2023-04-25T00:47:32;5.70;;;3.50;;
5823;SDS011;2938;52.254;12.988;2023-04-25T00:49:58;9.55;;;4.53;;
5823;SDS011;2938;52.254;12.988;2023-04-25T00:52:23;6.97;;;4.45;;
5823;SDS011;2938;52.254;12.988;2023-04-25T00:54:48;7.90;;;3.92;;
5823;SDS011;2938;52.254;12.988;2023-04-25T00:57:16;10.68;;;4.90;;
5823;SDS011;2938;52.254;12.988;2023-04-25T00:59:42;8.63;;;4.50;;
5823;SDS011;2938;52.254;12.988;2023-04-25T01:02:10;5.72;;;4.13;;
5823;SDS011;2938;52.254;12.988;2023-04-25T01:04:36;5.38;;;3.80;;
5823;SDS011;2938;52.254;12.988;2023-04-25T01:07:01;5.78;;;3.63;;
5823;SDS011;2938;52.254;12.988;2023-04-25T01:09:27;17.45;;;4.63;;
5823;SDS011;2938;52.254;12.988;2023-04-25T01:11:53;14.65;;;4.63;;
5823;SDS011;2938;52.254;12.988;2023-04-25T01:14:18;5.32;;;3.80;;
5823;SDS011;2938;52.254;12.988;2023-04-25T01:16:44;8.68;;;4.30;;
5823;SDS011;2938;52.254;12.988;2023-04-25T01:19:09;8.82;;;3.75;;
5823;SDS011;2938;52.254;12.988;2023-04-25T01:21:38;10.75;;;5.35;;
5823;SDS011;2938;52.254;12.988;2023-04-25T01:24:03;6.82;;;3.72;;
5823;SDS011;2938;52.254;12.988;2023-04-25T01:26:29;10.10;;;4.90;;
5823;SDS011;2938;52.254;12.988;2023-04-25T01:28:55;8.57;;;4.35;;
5823;SDS011;2938;52.254;12.988;2023-04-25T01:31:20;6.47;;;3.97;;
5823;SDS011;2938;52.254;12.988;2023-04-25T01:33:46;6.88;;;4.43;;
5823;SDS011;2938;52.254;12.988;2023-04-25T01:36:14;9.50;;;5.70;;
5823;SDS011;2938;52.254;12.988;2023-04-25T01:38:40;6.93;;;3.65;;
5823;SDS011;2938;52.254;12.988;2023-04-25T01:41:05;6.75;;;4.82;;
5823;SDS011;2938;52.254;12.988;2023-04-25T01:43:31;7.78;;;4.32;;
5823;SDS011;2938;52.254;12.988;2023-04-25T01:45:56;8.98;;;4.68;;
5823;SDS011;2938;52.254;12.988;2023-04-25T01:48:21;10.93;;;5.47;;
5823;SDS011;2938;52.254;12.988;2023-04-25T01:50:47;11.93;;;4.28;;
5823;SDS011;2938;52.254;12.988;2023-04-25T01:53:13;8.50;;;3.63;;
5823;SDS011;2938;52.254;12.988;2023-04-25T01:55:39;11.27;;;4.25;;
5823;SDS011;2938;52.254;12.988;2023-04-25T01:58:04;12.40;;;4.30;;
5823;SDS011;2938;52.254;12.988;2023-04-25T02:00:34;10.60;;;5.72;;
5823;SDS011;2938;52.254;12.988;2023-04-25T02:03:00;8.13;;;4.43;;
5823;SDS011;2938;52.254;12.988;2023-04-25T02:05:25;9.23;;;5.03;;
5823;SDS011;2938;52.254;12.988;2023-04-25T02:07:51;9.88;;;6.03;;
5823;SDS011;2938;52.254;12.988;2023-04-25T02:10:16;8.23;;;5.60;;
5823;SDS011;2938;52.254;12.988;2023-04-25T02:12:41;7.45;;;4.60;;
5823;SDS011;2938;52.254;12.988;2023-04-25T02:15:07;10.65;;;4.55;;
5823;SDS011;2938;52.254;12.988;2023-04-25T02:17:32;8.70;;;4.40;;
5823;SDS011;2938;52.254;12.988;2023-04-25T02:19:58;11.15;;;4.25;;
5823;SDS011;2938;52.254;12.988;2023-04-25T02:22:23;9.23;;;4.55;;
5823;SDS011;2938;52.254;12.988;2023-04-25T02:24:48;12.55;;;6.35;;
5823;SDS011;2938;52.254;12.988;2023-04-25T02:27:14;12.82;;;5.82;;
5823;SDS011;2938;52.254;12.988;2023-04-25T02:29:39;9.02;;;5.25;;
5823;SDS011;2938;52.254;12.988;2023-04-25T02:32:04;7.10;;;5.35;;
5823;SDS011;2938;52.254;12.988;2023-04-25T02:34:30;13.45;;;4.80;;
5823;SDS011;2938;52.254;12.988;2023-04-25T02:36:55;8.32;;;5.60;;
5823;SDS011;2938;52.254;12.988;2023-04-25T02:39:21;11.23;;;4.65;;
5823;SDS011;2938;52.254;12.988;2023-04-25T02:41:47;7.18;;;5.32;;
5823;SDS011;2938;52.254;12.988;2023-04-25T02:44:12;11.73;;;5.13;;
5823;SDS011;2938;52.254;12.988;2023-04-25T02:46:37;11.00;;;5.68;;
5823;SDS011;2938;52.254;12.988;2023-04-25T02:49:03;10.98;;;5.70;;
5823;SDS011;2938;52.254;12.988;2023-04-25T02:51:28;13.68;;;4.40;;
5823;SDS011;2938;52.254;12.988;2023-04-25T02:53:53;8.00;;;5.10;;
5823;SDS011;2938;52.254;12.988;2023-04-25T02:56:18;13.60;;;5.50;;
5823;SDS011;2938;52.254;12.988;2023-04-25T02:58:44;12.45;;;5.60;;
5823;SDS011;2938;52.254;12.988;2023-04-25T03:01:10;9.88;;;6.03;;
5823;SDS011;2938;52.254;12.988;2023-04-25T03:03:35;7.25;;;4.60;;
5823;SDS011;2938;52.254;12.988;2023-04-25T03:06:00;10.95;;;5.40;;
5823;SDS011;2938;52.254;12.988;2023-04-25T03:08:25;10.60;;;5.93;;
5823;SDS011;2938;52.254;12.988;2023-04-25T03:10:54;11.48;;;5.47;;
5823;SDS011;2938;52.254;12.988;2023-04-25T03:13:20;12.05;;;6.55;;
5823;SDS011;2938;52.254;12.988;2023-04-25T03:15:45;15.85;;;6.30;;
5823;SDS011;2938;52.254;12.988;2023-04-25T03:18:11;10.25;;;5.93;;
5823;SDS011;2938;52.254;12.988;2023-04-25T03:20:36;9.68;;;5.93;;
5823;SDS011;2938;52.254;12.988;2023-04-25T03:23:01;8.90;;;5.35;;
5823;SDS011;2938;52.254;12.988;2023-04-25T03:25:27;11.40;;;5.85;;
5823;SDS011;2938;52.254;12.988;2023-04-25T03:27:52;14.57;;;6.63;;
5823;SDS011;2938;52.254;12.988;2023-04-25T03:30:17;9.15;;;5.82;;
5823;SDS011;2938;52.254;12.988;2023-04-25T03:32:42;14.50;;;6.82;;
5823;SDS011;2938;52.254;12.988;2023-04-25T03:35:08;10.55;;;6.78;;
5823;SDS011;2938;52.254;12.988;2023-04-25T03:37:33;15.95;;;7.25;;
5823;SDS011;2938;52.254;12.988;2023-04-25T03:39:59;9.25;;;6.53;;
5823;SDS011;2938;52.254;12.988;2023-04-25T03:42:24;20.45;;;8.35;;
5823;SDS011;2938;52.254;12.988;2023-04-25T03:44:51;12.18;;;6.63;;
5823;SDS011;2938;52.254;12.988;2023-04-25T03:47:16;18.90;;;6.38;;
5823;SDS011;2938;52.254;12.988;2023-04-25T03:49:41;10.85;;;6.00;;
5823;SDS011;2938;52.254;12.988;2023-04-25T03:52:07;7.60;;;5.85;;
5823;SDS011;2938;52.254;12.988;2023-04-25T03:54:32;14.27;;;7.45;;
5823;SDS011;2938;52.254;12.988;2023-04-25T03:56:57;13.82;;;7.07;;
5823;SDS011;2938;52.254;12.988;2023-04-25T03:59:23;14.95;;;6.93;;
5823;SDS011;2938;52.254;12.988;2023-04-25T04:01:49;20.25;;;7.15;;
5823;SDS011;2938;52.254;12.988;2023-04-25T04:04:15;16.60;;;7.40;;
5823;SDS011;2938;52.254;12.988;2023-04-25T04:06:40;13.60;;;8.40;;
5823;SDS011;2938;52.254;12.988;2023-04-25T04:09:05;15.20;;;7.97;;
5823;SDS011;2938;52.254;12.988;2023-04-25T04:11:34;16.13;;;7.22;;
5823;SDS011;2938;52.254;12.988;2023-04-25T04:14:01;14.02;;;7.13;;
5823;SDS011;2938;52.254;12.988;2023-04-25T04:16:27;13.25;;;8.60;;
5823;SDS011;2938;52.254;12.988;2023-04-25T04:18:52;9.98;;;6.85;;
5823;SDS011;2938;52.254;12.988;2023-04-25T04:21:17;11.75;;;7.30;;
5823;SDS011;2938;52.254;12.988;2023-04-25T04:23:43;16.75;;;7.38;;
5823;SDS011;2938;52.254;12.988;2023-04-25T04:26:08;12.30;;;7.20;;
5823;SDS011;2938;52.254;12.988;2023-04-25T04:28:34;8.15;;;6.45;;
5823;SDS011;2938;52.254;12.988;2023-04-25T04:31:00;12.07;;;7.18;;
5823;SDS011;2938;52.254;12.988;2023-04-25T04:33:25;22.05;;;8.02;;
5823;SDS011;2938;52.254;12.988;2023-04-25T04:35:51;18.05;;;7.35;;
5823;SDS011;2938;52.254;12.988;2023-04-25T04:38:17;14.38;;;8.15;;
5823;SDS011;2938;52.254;12.988;2023-04-25T04:40:43;13.23;;;6.95;;
5823;SDS011;2938;52.254;12.988;2023-04-25T04:43:09;12.52;;;7.57;;
5823;SDS011;2938;52.254;12.988;2023-04-25T04:45:35;20.00;;;7.30;;
5823;SDS011;2938;52.254;12.988;2023-04-25T04:48:01;14.10;;;7.88;;
5823;SDS011;2938;52.254;12.988;2023-04-25T04:50:26;16.55;;;6.80;;
5823;SDS011;2938;52.254;12.988;2023-04-25T04:52:52;16.77;;;7.35;;
5823;SDS011;2938;52.254;12.988;2023-04-25T04:55:17;11.35;;;6.65;;
5823;SDS011;2938;52.254;12.988;2023-04-25T04:57:42;12.55;;;7.45;;
5823;SDS011;2938;52.254;12.988;2023-04-25T05:00:08;16.55;;;7.47;;
5823;SDS011;2938;52.254;12.988;2023-04-25T05:02:36;11.93;;;6.53;;
5823;SDS011;2938;52.254;12.988;2023-04-25T05:05:02;13.57;;;7.45;;
5823;SDS011;2938;52.254;12.988;2023-04-25T05:07:28;15.98;;;7.30;;
5823;SDS011;2938;52.254;12.988;2023-04-25T05:09:53;19.13;;;7.47;;
5823;SDS011;2938;52.254;12.988;2023-04-25T05:12:19;16.40;;;7.03;;
5823;SDS011;2938;52.254;12.988;2023-04-25T05:14:44;10.95;;;6.82;;
5823;SDS011;2938;52.254;12.988;2023-04-25T05:17:10;24.58;;;7.38;;
5823;SDS011;2938;52.254;12.988;2023-04-25T05:19:35;11.15;;;7.18;;
5823;SDS011;2938;52.254;12.988;2023-04-25T05:22:01;14.80;;;6.47;;
5823;SDS011;2938;52.254;12.988;2023-04-25T05:24:27;11.77;;;7.13;;
5823;SDS011;2938;52.254;12.988;2023-04-25T05:26:52;17.85;;;7.82;;
5823;SDS011;2938;52.254;12.988;2023-04-25T05:29:18;16.15;;;6.47;;
5823;SDS011;2938;52.254;12.988;2023-04-25T05:31:43;12.38;;;5.95;;
5823;SDS011;2938;52.254;12.988;2023-04-25T05:34:09;13.88;;;5.95;;
5823;SDS011;2938;52.254;12.988;2023-04-25T05:36:34;17.98;;;7.22;;
5823;SDS011;2938;52.254;12.988;2023-04-25T05:39:00;10.45;;;6.07;;
5823;SDS011;2938;52.254;12.988;2023-04-25T05:41:25;14.63;;;7.05;;
5823;SDS011;2938;52.254;12.988;2023-04-25T05:43:50;14.05;;;6.95;;
5823;SDS011;2938;52.254;12.988;2023-04-25T05:46:16;11.95;;;5.95;;
5823;SDS011;2938;52.254;12.988;2023-04-25T05:48:42;11.13;;;6.22;;
5823;SDS011;2938;52.254;12.988;2023-04-25T05:51:07;12.05;;;6.85;;
5823;SDS011;2938;52.254;12.988;2023-04-25T05:53:32;14.38;;;6.63;;
5823;SDS011;2938;52.254;12.988;2023-04-25T05:55:58;14.90;;;8.02;;
5823;SDS011;2938;52.254;12.988;2023-04-25T05:58:23;13.73;;;5.95;;
5823;SDS011;2938;52.254;12.988;2023-04-25T06:00:48;15.93;;;6.68;;
5823;SDS011;2938;52.254;12.988;2023-04-25T06:03:14;12.10;;;7.32;;
5823;SDS011;2938;52.254;12.988;2023-04-25T06:05:41;16.98;;;7.05;;
5823;SDS011;2938;52.254;12.988;2023-04-25T06:08:07;14.40;;;7.00;;
5823;SDS011;2938;52.254;12.988;2023-04-25T06:10:32;13.55;;;7.15;;
5823;SDS011;2938;52.254;12.988;2023-04-25T06:12:57;23.17;;;7.15;;
5823;SDS011;2938;52.254;12.988;2023-04-25T06:15:22;13.32;;;6.40;;
5823;SDS011;2938;52.254;12.988;2023-04-25T06:17:48;16.35;;;6.18;;
5823;SDS011;2938;52.254;12.988;2023-04-25T06:20:13;14.25;;;6.43;;
5823;SDS011;2938;52.254;12.988;2023-04-25T06:22:39;8.32;;;5.18;;
5823;SDS011;2938;52.254;12.988;2023-04-25T06:25:04;10.73;;;6.28;;
5823;SDS011;2938;52.254;12.988;2023-04-25T06:27:30;13.02;;;5.82;;
5823;SDS011;2938;52.254;12.988;2023-04-25T06:29:55;11.90;;;6.70;;
5823;SDS011;2938;52.254;12.988;2023-04-25T06:32:20;7.00;;;5.75;;
5823;SDS011;2938;52.254;12.988;2023-04-25T06:34:46;8.60;;;6.30;;
5823;SDS011;2938;52.254;12.988;2023-04-25T06:37:11;18.08;;;6.10;;
5823;SDS011;2938;52.254;12.988;2023-04-25T06:39:36;15.50;;;7.18;;
5823;SDS011;2938;52.254;12.988;2023-04-25T06:42:02;9.77;;;5.93;;
5823;SDS011;2938;52.254;12.988;2023-04-25T06:44:27;8.73;;;5.68;;
5823;SDS011;2938;52.254;12.988;2023-04-25T06:46:54;11.82;;;6.57;;
5823;SDS011;2938;52.254;12.988;2023-04-25T06:49:19;14.88;;;7.00;;
5823;SDS011;2938;52.254;12.988;2023-04-25T06:51:44;11.32;;;6.85;;
5823;SDS011;2938;52.254;12.988;2023-04-25T06:54:10;18.85;;;7.80;;
5823;SDS011;2938;52.254;12.988;2023-04-25T06:56:35;11.38;;;6.03;;
5823;SDS011;2938;52.254;12.988;2023-04-25T06:59:00;13.68;;;6.53;;
5823;SDS011;2938;52.254;12.988;2023-04-25T07:01:26;13.85;;;5.80;;
5823;SDS011;2938;52.254;12.988;2023-04-25T07:03:51;20.92;;;7.20;;
5823;SDS011;2938;52.254;12.988;2023-04-25T07:06:16;16.05;;;6.97;;
5823;SDS011;2938;52.254;12.988;2023-04-25T07:08:42;12.18;;;6.90;;
5823;SDS011;2938;52.254;12.988;2023-04-25T07:11:07;12.88;;;6.78;;
5823;SDS011;2938;52.254;12.988;2023-04-25T07:13:32;12.98;;;6.63;;
5823;SDS011;2938;52.254;12.988;2023-04-25T07:15:57;13.63;;;6.43;;
5823;SDS011;2938;52.254;12.988;2023-04-25T07:18:23;19.55;;;6.03;;
5823;SDS011;2938;52.254;12.988;2023-04-25T07:20:51;8.52;;;5.43;;
5823;SDS011;2938;52.254;12.988;2023-04-25T07:23:16;11.38;;;5.97;;
5823;SDS011;2938;52.254;12.988;2023-04-25T07:25:42;14.35;;;6.68;;
5823;SDS011;2938;52.254;12.988;2023-04-25T07:28:07;10.82;;;5.55;;
5823;SDS011;2938;52.254;12.988;2023-04-25T07:30:32;10.18;;;5.28;;
5823;SDS011;2938;52.254;12.988;2023-04-25T07:32:59;10.95;;;5.78;;
5823;SDS011;2938;52.254;12.988;2023-04-25T07:35:24;19.02;;;6.18;;
5823;SDS011;2938;52.254;12.988;2023-04-25T07:37:50;8.60;;;5.60;;
5823;SDS011;2938;52.254;12.988;2023-04-25T07:40:16;15.90;;;5.45;;
5823;SDS011;2938;52.254;12.988;2023-04-25T07:42:41;21.40;;;6.78;;
5823;SDS011;2938;52.254;12.988;2023-04-25T07:45:06;15.75;;;5.93;;
5823;SDS011;2938;52.254;12.988;2023-04-25T07:47:32;10.38;;;5.35;;
5823;SDS011;2938;52.254;12.988;2023-04-25T07:49:57;15.90;;;6.47;;
5823;SDS011;2938;52.254;12.988;2023-04-25T07:52:23;20.45;;;8.07;;
5823;SDS011;2938;52.254;12.988;2023-04-25T07:54:48;16.80;;;6.68;;
5823;SDS011;2938;52.254;12.988;2023-04-25T07:57:13;15.45;;;6.93;;
5823;SDS011;2938;52.254;12.988;2023-04-25T07:59:39;15.07;;;5.65;;
5823;SDS011;2938;52.254;12.988;2023-04-25T08:02:05;14.15;;;6.22;;
5823;SDS011;2938;52.254;12.988;2023-04-25T08:04:30;19.50;;;7.22;;
5823;SDS011;2938;52.254;12.988;2023-04-25T08:06:55;23.80;;;7.15;;
5823;SDS011;2938;52.254;12.988;2023-04-25T08:09:20;18.52;;;6.30;;
5823;SDS011;2938;52.254;12.988;2023-04-25T08:11:46;29.00;;;7.05;;
5823;SDS011;2938;52.254;12.988;2023-04-25T08:14:12;14.68;;;6.15;;
5823;SDS011;2938;52.254;12.988;2023-04-25T08:16:37;27.10;;;7.35;;
5823;SDS011;2938;52.254;12.988;2023-04-25T08:19:03;35.60;;;6.90;;
5823;SDS011;2938;52.254;12.988;2023-04-25T08:21:28;18.40;;;6.97;;
5823;SDS011;2938;52.254;12.988;2023-04-25T08:23:53;17.92;;;6.10;;
5823;SDS011;2938;52.254;12.988;2023-04-25T08:26:19;20.77;;;6.80;;
5823;SDS011;2938;52.254;12.988;2023-04-25T08:28:44;17.95;;;5.60;;
5823;SDS011;2938;52.254;12.988;2023-04-25T08:31:11;17.92;;;5.40;;
5823;SDS011;2938;52.254;12.988;2023-04-25T08:33:36;17.92;;;6.43;;
5823;SDS011;2938;52.254;12.988;2023-04-25T08:36:01;23.65;;;6.05;;
5823;SDS011;2938;52.254;12.988;2023-04-25T08:38:30;24.83;;;5.40;;
5823;SDS011;2938;52.254;12.988;2023-04-25T08:40:56;17.90;;;5.78;;
5823;SDS011;2938;52.254;12.988;2023-04-25T08:43:21;22.65;;;6.15;;
5823;SDS011;2938;52.254;12.988;2023-04-25T08:45:48;20.40;;;5.70;;
5823;SDS011;2938;52.254;12.988;2023-04-25T08:48:14;19.45;;;4.13;;
5823;SDS011;2938;52.254;12.988;2023-04-25T08:50:45;13.80;;;4.50;;
5823;SDS011;2938;52.254;12.988;2023-04-25T08:53:15;14.88;;;4.28;;
5823;SDS011;2938;52.254;12.988;2023-04-25T08:55:43;14.55;;;5.70;;
5823;SDS011;2938;52.254;12.988;2023-04-25T08:58:09;17.75;;;5.28;;
5823;SDS011;2938;52.254;12.988;2023-04-25T09:00:36;16.55;;;6.32;;
5823;SDS011;2938;52.254;12.988;2023-04-25T09:03:01;17.20;;;4.18;;
5823;SDS011;2938;52.254;12.988;2023-04-25T09:05:27;18.30;;;4.43;;
5823;SDS011;2938;52.254;12.988;2023-04-25T09:07:53;17.65;;;4.65;;
5823;SDS011;2938;52.254;12.988;2023-04-25T09:10:18;12.43;;;5.05;;
5823;SDS011;2938;52.254;12.988;2023-04-25T09:12:44;12.57;;;3.67;;
5823;SDS011;2938;52.254;12.988;2023-04-25T09:15:10;15.27;;;5.07;;
5823;SDS011;2938;52.254;12.988;2023-04-25T09:17:36;15.13;;;3.80;;
5823;SDS011;2938;52.254;12.988;2023-04-25T09:20:08;13.20;;;4.00;;
5823;SDS011;2938;52.254;12.988;2023-04-25T09:22:36;15.98;;;4.30;;
5823;SDS011;2938;52.254;12.988;2023-04-25T09:25:02;17.58;;;4.15;;
5823;SDS011;2938;52.254;12.988;2023-04-25T09:27:29;14.73;;;4.45;;
5823;SDS011;2938;52.254;12.988;2023-04-25T09:29:58;15.05;;;3.10;;
5823;SDS011;2938;52.254;12.988;2023-04-25T09:34:55;18.27;;;3.65;;
5823;SDS011;2938;52.254;12.988;2023-04-25T09:37:26;15.32;;;4.50;;
5823;SDS011;2938;52.254;12.988;2023-04-25T09:39:53;15.73;;;3.35;;
5823;SDS011;2938;52.254;12.988;2023-04-25T09:42:23;12.98;;;3.30;;
5823;SDS011;2938;52.254;12.988;2023-04-25T09:44:51;12.45;;;3.50;;
5823;SDS011;2938;52.254;12.988;2023-04-25T09:47:17;7.70;;;2.92;;
5823;SDS011;2938;52.254;12.988;2023-04-25T09:49:43;8.70;;;3.17;;
5823;SDS011;2938;52.254;12.988;2023-04-25T09:52:09;13.48;;;3.63;;
5823;SDS011;2938;52.254;12.988;2023-04-25T09:54:38;10.65;;;4.18;;
5823;SDS011;2938;52.254;12.988;2023-04-25T09:57:10;12.25;;;3.72;;
5823;SDS011;2938;52.254;12.988;2023-04-25T09:59:36;14.02;;;3.72;;
5823;SDS011;2938;52.254;12.988;2023-04-25T10:02:03;13.80;;;3.60;;
5823;SDS011;2938;52.254;12.988;2023-04-25T10:04:29;14.98;;;4.43;;
5823;SDS011;2938;52.254;12.988;2023-04-25T10:06:57;13.65;;;3.50;;
5823;SDS011;2938;52.254;12.988;2023-04-25T10:09:24;14.00;;;3.88;;
5823;SDS011;2938;52.254;12.988;2023-04-25T10:11:50;16.67;;;4.13;;
5823;SDS011;2938;52.254;12.988;2023-04-25T10:14:17;13.80;;;3.92;;
5823;SDS011;2938;52.254;12.988;2023-04-25T10:16:43;15.90;;;3.95;;
5823;SDS011;2938;52.254;12.988;2023-04-25T10:19:11;15.05;;;3.95;;
5823;SDS011;2938;52.254;12.988;2023-04-25T10:21:42;15.13;;;4.93;;
5823;SDS011;2938;52.254;12.988;2023-04-25T10:24:14;12.10;;;4.07;;
5823;SDS011;2938;52.254;12.988;2023-04-25T10:26:40;15.02;;;4.47;;
5823;SDS011;2938;52.254;12.988;2023-04-25T10:29:05;12.15;;;3.63;;
5823;SDS011;2938;52.254;12.988;2023-04-25T10:31:31;21.98;;;5.47;;
5823;SDS011;2938;52.254;12.988;2023-04-25T10:33:56;10.77;;;3.53;;
5823;SDS011;2938;52.254;12.988;2023-04-25T10:36:22;12.35;;;3.85;;
5823;SDS011;2938;52.254;12.988;2023-04-25T10:38:48;12.75;;;4.38;;
5823;SDS011;2938;52.254;12.988;2023-04-25T10:41:18;18.67;;;4.03;;
5823;SDS011;2938;52.254;12.988;2023-04-25T10:43:45;21.77;;;4.82;;
5823;SDS011;2938;52.254;12.988;2023-04-25T10:46:24;15.50;;;4.18;;
5823;SDS011;2938;52.254;12.988;2023-04-25T10:48:56;15.13;;;4.93;;
5823;SDS011;2938;52.254;12.988;2023-04-25T10:51:33;20.30;;;4.47;;
5823;SDS011;2938;52.254;12.988;2023-04-25T10:54:00;20.10;;;3.75;;
5823;SDS011;2938;52.254;12.988;2023-04-25T10:56:35;20.02;;;5.05;;
5823;SDS011;2938;52.254;12.988;2023-04-25T10:59:15;19.17;;;4.07;;
5823;SDS011;2938;52.254;12.988;2023-04-25T11:01:45;17.30;;;4.43;;
5823;SDS011;2938;52.254;12.988;2023-04-25T11:09:35;14.70;;;4.18;;
5823;SDS011;2938;52.254;12.988;2023-04-25T11:12:02;14.32;;;5.28;;
5823;SDS011;2938;52.254;12.988;2023-04-25T11:14:28;10.88;;;4.38;;
5823;SDS011;2938;52.254;12.988;2023-04-25T11:16:53;16.70;;;3.53;;
5823;SDS011;2938;52.254;12.988;2023-04-25T11:19:20;8.27;;;3.10;;
5823;SDS011;2938;52.254;12.988;2023-04-25T11:21:46;11.48;;;4.93;;
5823;SDS011;2938;52.254;12.988;2023-04-25T11:24:11;14.55;;;3.72;;
5823;SDS011;2938;52.254;12.988;2023-04-25T11:26:36;17.70;;;3.92;;
5823;SDS011;2938;52.254;12.988;2023-04-25T11:29:02;4.70;;;2.90;;
5823;SDS011;2938;52.254;12.988;2023-04-25T11:31:28;14.80;;;3.10;;
5823;SDS011;2938;52.254;12.988;2023-04-25T11:33:54;7.40;;;2.67;;
5823;SDS011;2938;52.254;12.988;2023-04-25T11:36:22;10.65;;;2.50;;
5823;SDS011;2938;52.254;12.988;2023-04-25T11:38:48;9.63;;;2.75;;
5823;SDS011;2938;52.254;12.988;2023-04-25T11:41:15;13.07;;;3.53;;
5823;SDS011;2938;52.254;12.988;2023-04-25T11:43:42;5.93;;;2.30;;
5823;SDS011;2938;52.254;12.988;2023-04-25T11:46:14;8.35;;;2.65;;
5823;SDS011;2938;52.254;12.988;2023-04-25T11:48:39;5.97;;;2.03;;
5823;SDS011;2938;52.254;12.988;2023-04-25T11:51:05;9.75;;;2.88;;
5823;SDS011;2938;52.254;12.988;2023-04-25T11:53:30;9.55;;;2.58;;
5823;SDS011;2938;52.254;12.988;2023-04-25T11:55:56;9.30;;;3.65;;
5823;SDS011;2938;52.254;12.988;2023-04-25T11:58:21;10.93;;;3.05;;
5823;SDS011;2938;52.254;12.988;2023-04-25T12:00:46;6.60;;;2.22;;
5823;SDS011;2938;52.254;12.988;2023-04-25T12:03:15;4.80;;;2.08;;
5823;SDS011;2938;52.254;12.988;2023-04-25T12:05:40;8.05;;;2.53;;
5823;SDS011;2938;52.254;12.988;2023-04-25T12:08:12;10.82;;;2.55;;
5823;SDS011;2938;52.254;12.988;2023-04-25T12:10:42;6.43;;;2.78;;
5823;SDS011;2938;52.254;12.988;2023-04-25T12:13:21;9.43;;;2.53;;
5823;SDS011;2938;52.254;12.988;2023-04-25T12:15:48;10.30;;;2.78;;
5823;SDS011;2938;52.254;12.988;2023-04-25T12:18:13;9.85;;;3.33;;
5823;SDS011;2938;52.254;12.988;2023-04-25T12:20:39;10.43;;;2.80;;
5823;SDS011;2938;52.254;12.988;2023-04-25T12:23:07;7.60;;;2.85;;
5823;SDS011;2938;52.254;12.988;2023-04-25T12:25:43;6.95;;;2.80;;
5823;SDS011;2938;52.254;12.988;2023-04-25T12:30:57;15.25;;;3.00;;
5823;SDS011;2938;52.254;12.988;2023-04-25T12:33:33;16.02;;;3.15;;
5823;SDS011;2938;52.254;12.988;2023-04-25T12:36:01;7.87;;;2.47;;
5823;SDS011;2938;52.254;12.988;2023-04-25T12:38:36;4.43;;;2.58;;
5823;SDS011;2938;52.254;12.988;2023-04-25T12:41:05;7.82;;;2.58;;
5823;SDS011;2938;52.254;12.988;2023-04-25T12:43:31;18.02;;;4.30;;
5823;SDS011;2938;52.254;12.988;2023-04-25T12:45:56;10.75;;;3.35;;
5823;SDS011;2938;52.254;12.988;2023-04-25T12:48:22;7.45;;;2.88;;
5823;SDS011;2938;52.254;12.988;2023-04-25T12:50:48;9.05;;;3.05;;
5823;SDS011;2938;52.254;12.988;2023-04-25T12:53:17;11.25;;;3.75;;
5823;SDS011;2938;52.254;12.988;2023-04-25T12:55:43;10.35;;;3.20;;
5823;SDS011;2938;52.254;12.988;2023-04-25T12:58:11;7.25;;;2.85;;
5823;SDS011;2938;52.254;12.988;2023-04-25T13:00:37;8.98;;;3.83;;
5823;SDS011;2938;52.254;12.988;2023-04-25T13:03:03;10.20;;;3.40;;
5823;SDS011;2938;52.254;12.988;2023-04-25T13:05:29;9.23;;;3.35;;
5823;SDS011;2938;52.254;12.988;2023-04-25T13:07:55;11.57;;;2.58;;
5823;SDS011;2938;52.254;12.988;2023-04-25T13:10:20;8.45;;;3.45;;
5823;SDS011;2938;52.254;12.988;2023-04-25T13:12:46;12.65;;;4.05;;
5823;SDS011;2938;52.254;12.988;2023-04-25T13:15:11;8.55;;;3.05;;
5823;SDS011;2938;52.254;12.988;2023-04-25T13:17:39;15.88;;;3.22;;
5823;SDS011;2938;52.254;12.988;2023-04-25T13:20:05;9.52;;;3.85;;
5823;SDS011;2938;52.254;12.988;2023-04-25T13:22:33;15.77;;;4.55;;
5823;SDS011;2938;52.254;12.988;2023-04-25T13:24:59;11.32;;;4.30;;
5823;SDS011;2938;52.254;12.988;2023-04-25T13:27:24;13.73;;;4.13;;
5823;SDS011;2938;52.254;12.988;2023-04-25T13:29:49;20.58;;;3.53;;
5823;SDS011;2938;52.254;12.988;2023-04-25T13:32:15;12.88;;;3.45;;
5823;SDS011;2938;52.254;12.988;2023-04-25T13:34:40;10.50;;;4.28;;
5823;SDS011;2938;52.254;12.988;2023-04-25T13:37:05;13.25;;;4.00;;
5823;SDS011;2938;52.254;12.988;2023-04-25T13:39:31;12.38;;;3.67;;
5823;SDS011;2938;52.254;12.988;2023-04-25T13:41:56;11.50;;;3.08;;
5823;SDS011;2938;52.254;12.988;2023-04-25T13:44:21;16.13;;;3.58;;
5823;SDS011;2938;52.254;12.988;2023-04-25T13:46:47;9.35;;;2.95;;
5823;SDS011;2938;52.254;12.988;2023-04-25T13:49:12;9.55;;;3.28;;
5823;SDS011;2938;52.254;12.988;2023-04-25T13:51:37;11.10;;;3.42;;
5823;SDS011;2938;52.254;12.988;2023-04-25T13:54:03;9.43;;;3.38;;
5823;SDS011;2938;52.254;12.988;2023-04-25T13:56:28;8.25;;;3.38;;
5823;SDS011;2938;52.254;12.988;2023-04-25T13:58:53;11.70;;;3.80;;
5823;SDS011;2938;52.254;12.988;2023-04-25T14:01:19;13.60;;;4.07;;
5823;SDS011;2938;52.254;12.988;2023-04-25T14:03:45;7.55;;;3.17;;
5823;SDS011;2938;52.254;12.988;2023-04-25T14:06:11;13.70;;;3.63;;
5823;SDS011;2938;52.254;12.988;2023-04-25T14:08:43;5.78;;;3.15;;
5823;SDS011;2938;52.254;12.988;2023-04-25T14:11:08;8.50;;;2.53;;
5823;SDS011;2938;52.254;12.988;2023-04-25T14:13:34;8.60;;;3.15;;
5823;SDS011;2938;52.254;12.988;2023-04-25T14:15:59;9.80;;;4.45;;
5823;SDS011;2938;52.254;12.988;2023-04-25T14:18:24;7.38;;;2.97;;
5823;SDS011;2938;52.254;12.988;2023-04-25T14:20:50;12.40;;;3.22;;
5823;SDS011;2938;52.254;12.988;2023-04-25T14:23:16;9.48;;;2.85;;
5823;SDS011;2938;52.254;12.988;2023-04-25T14:25:42;8.27;;;2.80;;
5823;SDS011;2938;52.254;12.988;2023-04-25T14:28:07;13.75;;;2.97;;
5823;SDS011;2938;52.254;12.988;2023-04-25T14:30:33;13.23;;;3.40;;
5823;SDS011;2938;52.254;12.988;2023-04-25T14:33:01;25.83;;;3.83;;
5823;SDS011;2938;52.254;12.988;2023-04-25T14:35:26;8.77;;;3.78;;
5823;SDS011;2938;52.254;12.988;2023-04-25T14:37:52;9.75;;;3.38;;
5823;SDS011;2938;52.254;12.988;2023-04-25T14:40:19;5.35;;;2.90;;
5823;SDS011;2938;52.254;12.988;2023-04-25T14:42:47;13.10;;;2.83;;
5823;SDS011;2938;52.254;12.988;2023-04-25T14:45:13;6.53;;;2.30;;
5823;SDS011;2938;52.254;12.988;2023-04-25T14:47:38;14.45;;;3.90;;
5823;SDS011;2938;52.254;12.988;2023-04-25T14:50:06;12.88;;;2.97;;
5823;SDS011;2938;52.254;12.988;2023-04-25T14:52:32;10.70;;;2.53;;
5823;SDS011;2938;52.254;12.988;2023-04-25T14:54:57;11.65;;;3.70;;
5823;SDS011;2938;52.254;12.988;2023-04-25T14:57:22;12.70;;;2.95;;